Time;durP1;ratioP1;P1;durP2;ratioP2;P2;SDS_P1;SDS_P2;PMS_P1;PMS_P2;Temp;Humidity;BMP_temperature;BMP_pressure;BME280_temperature;BME280_humidity;BME280_pressure;Samples;Min_cycle;Max_cycle;Signal;HPM_P1;HPM_P2
2023/11/06 00:00:38;;;;;;;;;;;11.90;65.30;;;7.55;100.00;94400.94;4935729;29;19918;-50
2023/11/06 00:03:04;;;;;;;;;;;11.90;65.30;;;7.56;100.00;94399.88;4935466;28;19946;-53
2023/11/06 00:05:30;;;;;;;;;;;11.90;65.40;;;7.55;100.00;94398.28;4934839;29;19933;-49
2023/11/06 00:07:55;;;;;;;;;;;12.00;65.50;;;7.56;100.00;94407.81;4935361;29;19918;-50
2023/11/06 00:10:21;;;;;;;;;;;12.00;65.50;;;7.55;100.00;94394.81;4934845;29;20014;-52
2023/11/06 00:12:47;;;;;;;;;;;12.00;65.60;;;7.59;100.00;94406.47;4935610;29;20021;-50
2023/11/06 00:15:14;;;;;;;;;;;12.00;65.90;;;7.62;100.00;94412.03;4935585;29;19937;-51
2023/11/06 00:17:42;;;;;;;;;;;12.10;66.00;;;7.68;100.00;94419.94;4934210;29;19911;-50
2023/11/06 00:20:10;;;;;;;;;;;12.10;65.90;;;7.70;100.00;94421.25;4935299;29;19911;-48
2023/11/06 00:22:37;;;;;;;;;;;12.10;65.90;;;7.70;100.00;94425.75;4930520;29;20001;-48
2023/11/06 00:25:07;;;;;;;;;;;12.10;65.80;;;7.71;100.00;94416.72;4935229;29;19917;-50
2023/11/06 00:27:34;;;;;;;;;;;12.20;65.90;;;7.74;100.00;94422.31;4935108;29;19910;-50
2023/11/06 00:30:00;;;;;;;;;;;12.20;65.80;;;7.77;100.00;94428.88;4933900;28;19921;-50
2023/11/06 00:32:26;;;;;;;;;;;12.20;65.70;;;7.75;100.00;94426.53;4935227;29;19997;-53
2023/11/06 00:34:52;;;;;;;;;;;12.20;65.70;;;7.74;100.00;94424.94;4933970;29;19932;-49
2023/11/06 00:37:19;;;;;;;;;;;12.20;65.80;;;7.73;100.00;94420.69;4927552;29;19910;-49
2023/11/06 00:39:45;;;;;;;;;;;12.20;65.80;;;7.77;100.00;94426.25;4926284;29;19973;-48
2023/11/06 00:42:10;;;;;;;;;;;12.20;65.80;;;7.77;100.00;94435.00;4925963;29;19945;-48
2023/11/06 00:44:36;;;;;;;;;;;12.20;65.80;;;7.79;100.00;94443.47;4920269;29;19938;-49
2023/11/06 00:47:02;;;;;;;;;;;12.20;65.80;;;7.84;100.00;94442.66;4932708;29;20373;-49
2023/11/06 00:49:28;;;;;;;;;;;12.20;65.70;;;7.81;100.00;94449.28;4937492;28;20013;-49
2023/11/06 00:51:54;;;;;;;;;;;12.30;65.80;;;7.81;100.00;94448.50;4922186;29;19997;-51
2023/11/06 00:54:20;;;;;;;;;;;12.30;65.80;;;7.81;100.00;94454.59;4926123;29;19958;-51
2023/11/06 00:56:46;;;;;;;;;;;12.30;65.70;;;7.81;100.00;94459.09;4923831;29;19917;-50
2023/11/06 00:59:16;;;;;;;;;;;12.30;65.70;;;7.83;100.00;94459.59;4922912;29;19915;-51
2023/11/06 01:01:45;;;;;;;;;;;12.30;65.80;;;7.85;100.00;94463.56;4926177;29;19918;-48
2023/11/06 01:04:11;;;;;;;;;;;12.30;65.70;;;7.86;100.00;94467.00;4925610;29;20337;-50
2023/11/06 01:06:37;;;;;;;;;;;12.30;65.70;;;7.88;100.00;94455.06;4926880;29;19914;-48
2023/11/06 01:09:03;;;;;;;;;;;12.40;65.60;;;7.91;100.00;94458.25;4930123;29;19957;-52
2023/11/06 01:11:29;;;;;;;;;;;12.40;65.50;;;7.94;100.00;94455.84;4929371;29;19914;-52
2023/11/06 01:13:55;;;;;;;;;;;12.40;65.40;;;7.98;100.00;94461.38;4924582;29;20424;-49
2023/11/06 01:16:21;;;;;;;;;;;12.40;65.30;;;7.96;99.52;94455.56;4923496;29;20333;-48
2023/11/06 01:18:47;;;;;;;;;;;12.40;65.30;;;7.93;98.22;94456.91;4926581;29;20002;-48
2023/11/06 01:21:13;;;;;;;;;;;12.40;65.10;;;7.96;98.01;94459.03;4926631;29;19949;-50
2023/11/06 01:23:39;;;;;;;;;;;12.40;65.00;;;7.97;97.81;94447.34;4928583;29;19918;-51
2023/11/06 01:26:05;;;;;;;;;;;12.40;64.90;;;8.00;98.22;94459.25;4926727;29;20008;-48
2023/11/06 01:28:31;;;;;;;;;;;12.40;64.80;;;7.96;97.61;94459.03;4927415;29;19917;-48
2023/11/06 01:30:57;;;;;;;;;;;12.50;64.70;;;7.97;97.76;94460.59;4922704;29;20943;-53
2023/11/06 01:33:22;;;;;;;;;;;12.40;64.60;;;7.96;97.32;94459.03;4946267;29;19910;-49
2023/11/06 01:35:49;;;;;;;;;;;12.40;64.50;;;7.93;97.51;94459.56;4930210;29;20353;-50
2023/11/06 01:38:14;;;;;;;;;;;12.40;64.50;;;7.90;98.03;94454.81;4923399;29;19911;-50
2023/11/06 01:40:40;;;;;;;;;;;12.40;64.40;;;7.89;97.70;94458.50;4930702;29;19972;-51
2023/11/06 01:43:07;;;;;;;;;;;12.40;64.30;;;7.87;97.86;94460.66;4943585;28;19910;-51
2023/11/06 01:45:33;;;;;;;;;;;12.40;64.30;;;7.79;97.64;94463.88;4930239;29;19969;-52
2023/11/06 01:48:02;;;;;;;;;;;12.30;64.20;;;7.79;97.84;94467.31;4934655;28;19942;-48
2023/11/06 01:50:35;;;;;;;;;;;12.30;64.30;;;7.72;97.90;94474.78;4937685;28;19911;-48
2023/11/06 01:53:06;;;;;;;;;;;12.30;64.30;;;7.76;97.59;94467.06;4922314;29;19917;-50
2023/11/06 01:55:34;;;;;;;;;;;12.30;64.30;;;7.75;97.18;94468.94;4937320;28;19910;-49
2023/11/06 01:58:01;;;;;;;;;;;12.30;64.40;;;7.78;96.92;94472.91;4951683;28;20004;-49
2023/11/06 02:00:28;;;;;;;;;;;12.30;64.30;;;7.81;97.06;94478.44;4930183;29;19911;-54
2023/11/06 02:02:54;;;;;;;;;;;12.30;64.30;;;7.82;96.11;94490.63;4936864;29;19910;-48
2023/11/06 02:05:20;;;;;;;;;;;12.30;64.20;;;7.80;95.96;94484.84;4929205;29;19911;-51
2023/11/06 02:07:46;;;;;;;;;;;12.30;64.30;;;7.84;96.37;94479.78;4927519;29;19911;-50
2023/11/06 02:10:16;;;;;;;;;;;12.30;64.10;;;7.87;96.46;94487.19;4928815;29;19918;-50
2023/11/06 02:12:43;;;;;;;;;;;12.30;64.10;;;7.85;95.54;94476.84;4926590;28;19911;-49
2023/11/06 02:15:13;;;;;;;;;;;12.30;64.00;;;7.87;96.24;94481.88;4936935;29;19915;-47
2023/11/06 02:17:41;;;;;;;;;;;12.30;64.00;;;7.83;95.24;94483.47;4936457;29;19984;-48
2023/11/06 02:20:09;;;;;;;;;;;12.30;63.90;;;7.85;95.08;94487.44;4927068;29;19911;-51
2023/11/06 02:22:41;;;;;;;;;;;12.30;63.80;;;7.88;94.95;94483.44;4928408;29;20060;-48
2023/11/06 02:25:08;;;;;;;;;;;12.40;63.80;;;7.86;94.77;94485.56;4928587;29;19929;-47
2023/11/06 02:27:34;;;;;;;;;;;12.40;63.70;;;7.88;94.77;94492.19;4926426;29;19915;-52
2023/11/06 02:30:00;;;;;;;;;;;12.40;63.70;;;7.89;94.39;94488.47;4930703;29;19911;-53
2023/11/06 02:32:26;;;;;;;;;;;12.40;63.60;;;7.90;93.94;94494.59;4926933;29;19962;-52
2023/11/06 02:34:52;;;;;;;;;;;12.40;63.50;;;7.95;93.42;94494.53;4928590;29;19911;-49
2023/11/06 02:37:18;;;;;;;;;;;12.40;63.50;;;7.97;93.13;94495.06;4929572;28;19918;-48
2023/11/06 02:39:45;;;;;;;;;;;12.40;63.30;;;8.01;92.89;94495.31;4922200;29;19912;-49
2023/11/06 02:42:10;;;;;;;;;;;12.40;63.20;;;8.03;92.98;94499.28;4927499;29;19911;-51
2023/11/06 02:44:36;;;;;;;;;;;12.50;63.30;;;8.05;92.99;94505.09;4924044;29;19960;-50
2023/11/06 02:47:02;;;;;;;;;;;12.50;63.20;;;8.03;92.98;94501.94;4930928;29;19985;-52
2023/11/06 02:49:29;;;;;;;;;;;12.50;63.00;;;8.04;93.06;94500.06;4948851;28;20006;-51
2023/11/06 02:51:55;;;;;;;;;;;12.50;62.90;;;8.07;93.91;94502.16;4924848;29;19918;-51
2023/11/06 02:54:25;;;;;;;;;;;12.50;62.90;;;8.02;93.06;94495.06;4931033;29;20394;-48
2023/11/06 02:56:52;;;;;;;;;;;12.50;62.80;;;8.02;93.48;94499.53;4946569;28;20012;-51
2023/11/06 02:59:21;;;;;;;;;;;12.50;62.70;;;7.98;93.36;94509.91;4925185;29;20045;-51
2023/11/06 03:01:46;;;;;;;;;;;12.50;62.70;;;8.00;93.32;94504.34;4928046;29;20394;-52
2023/11/06 03:04:13;;;;;;;;;;;12.50;62.60;;;7.99;93.44;94508.84;4927383;29;20021;-54
2023/11/06 03:06:40;;;;;;;;;;;12.50;62.70;;;7.98;93.65;94503.81;4928705;28;19958;-49
2023/11/06 03:09:09;;;;;;;;;;;12.40;62.60;;;7.99;94.10;94508.84;4925608;29;19942;-48
2023/11/06 03:11:38;;;;;;;;;;;12.50;62.70;;;7.97;94.09;94510.19;4924618;28;19945;-48
2023/11/06 03:14:05;;;;;;;;;;;12.40;62.60;;;7.95;93.29;94513.09;4923590;28;20326;-48
2023/11/06 03:16:34;;;;;;;;;;;12.50;62.70;;;7.97;93.57;94520.78;4926973;28;19917;-52
2023/11/06 03:19:00;;;;;;;;;;;12.50;62.70;;;8.01;93.12;94519.97;4923357;28;19919;-51
2023/11/06 03:21:26;;;;;;;;;;;12.50;62.70;;;8.00;92.98;94523.69;4922232;29;20998;-49
2023/11/06 03:23:52;;;;;;;;;;;12.50;62.60;;;8.03;92.55;94525.78;4926414;28;20020;-48
2023/11/06 03:26:18;;;;;;;;;;;12.50;62.50;;;8.05;92.97;94525.50;4926343;28;19922;-47
2023/11/06 03:28:44;;;;;;;;;;;12.50;62.50;;;8.02;92.67;94531.38;4936909;28;20269;-49
2023/11/06 03:31:10;;;;;;;;;;;12.50;62.50;;;8.03;92.59;94522.34;4925865;29;19910;-51
2023/11/06 03:33:36;;;;;;;;;;;12.50;62.50;;;8.02;92.92;94539.31;4924482;29;19918;-48
2023/11/06 03:36:03;;;;;;;;;;;12.50;62.50;;;8.03;92.79;94554.19;4924400;29;19965;-50
2023/11/06 03:38:29;;;;;;;;;;;12.50;62.50;;;8.01;93.30;94557.09;4924031;28;19915;-53
2023/11/06 03:40:56;;;;;;;;;;;12.50;62.50;;;7.98;93.05;94564.81;4926797;29;19910;-50
2023/11/06 03:43:22;;;;;;;;;;;12.50;62.50;;;7.97;93.24;94563.22;4925437;28;19914;-52
2023/11/06 03:45:48;;;;;;;;;;;12.40;62.40;;;7.94;93.21;94572.50;4925391;28;19915;-51
2023/11/06 03:48:14;;;;;;;;;;;12.40;62.40;;;7.92;93.18;94571.19;4926126;28;19960;-49
2023/11/06 03:50:43;;;;;;;;;;;12.40;62.40;;;7.85;93.88;94569.63;4923720;29;19910;-51
2023/11/06 03:53:15;;;;;;;;;;;12.40;62.40;;;7.86;93.72;94560.59;4937168;28;19921;-49
2023/11/06 03:55:42;;;;;;;;;;;12.30;62.40;;;7.81;93.85;94560.63;4922962;28;20785;-49
2023/11/06 03:58:08;;;;;;;;;;;12.30;62.40;;;7.77;94.25;94556.13;4926335;28;20265;-49
2023/11/06 04:00:34;;;;;;;;;;;12.30;62.50;;;7.80;94.62;94571.50;4921652;28;19937;-50
2023/11/06 04:03:01;;;;;;;;;;;12.30;62.60;;;7.80;94.40;94568.84;4924219;28;19915;-50
2023/11/06 04:05:27;;;;;;;;;;;12.30;62.60;;;7.81;94.25;94570.47;4921265;28;19968;-52
2023/11/06 04:07:53;;;;;;;;;;;12.30;62.60;;;7.81;94.18;94581.84;4925220;28;20277;-53
2023/11/06 04:10:21;;;;;;;;;;;12.30;62.70;;;7.81;93.64;94573.91;4923388;28;28168;-53
2023/11/06 04:12:47;;;;;;;;;;;12.30;62.80;;;7.86;93.89;94581.81;4922871;28;19921;-51
2023/11/06 04:15:13;;;;;;;;;;;12.30;62.60;;;7.83;93.81;94585.03;4922585;29;19954;-53
2023/11/06 04:17:39;;;;;;;;;;;12.40;62.70;;;7.85;93.68;94585.53;4924495;29;20288;-48
2023/11/06 04:20:08;;;;;;;;;;;12.30;62.60;;;7.86;94.70;94594.28;4921580;29;19970;-49
2023/11/06 04:22:37;;;;;;;;;;;12.40;62.70;;;7.86;94.57;94599.59;4926803;29;20424;-51
2023/11/06 04:25:03;;;;;;;;;;;12.40;62.60;;;7.86;94.26;94600.38;4922583;28;19917;-51
2023/11/06 04:27:30;;;;;;;;;;;12.40;62.60;;;7.87;94.17;94594.03;4925134;28;19925;-50
2023/11/06 04:29:56;;;;;;;;;;;12.40;62.60;;;7.92;93.97;94595.06;4922809;29;19910;-51
2023/11/06 04:32:22;;;;;;;;;;;12.40;62.60;;;7.92;94.38;94601.16;4920820;29;19918;-54
2023/11/06 04:34:47;;;;;;;;;;;12.40;62.60;;;7.96;94.37;94596.09;4920360;29;19915;-51
2023/11/06 04:37:13;;;;;;;;;;;12.40;62.50;;;7.94;94.32;94603.56;4926655;29;19910;-51
2023/11/06 04:39:40;;;;;;;;;;;12.50;62.60;;;7.94;94.18;94598.25;4922624;28;20151;-50
2023/11/06 04:42:10;;;;;;;;;;;12.50;62.60;;;7.93;93.87;94604.59;4924610;28;19949;-48
2023/11/06 04:44:36;;;;;;;;;;;12.50;62.60;;;7.95;94.12;94605.13;4924729;28;20489;-51
2023/11/06 04:47:03;;;;;;;;;;;12.50;62.50;;;7.96;94.01;94612.81;4925576;28;19922;-47
2023/11/06 04:49:29;;;;;;;;;;;12.50;62.50;;;7.98;94.31;94608.03;4919975;29;19922;-48
2023/11/06 04:51:55;;;;;;;;;;;12.50;62.50;;;7.97;94.64;94600.34;4924258;29;19914;-48
2023/11/06 04:54:21;;;;;;;;;;;12.50;62.50;;;7.97;94.71;94611.75;4920909;29;19910;-52
2023/11/06 04:56:48;;;;;;;;;;;12.50;62.50;;;7.93;93.69;94608.06;4921796;28;20361;-49
2023/11/06 04:59:14;;;;;;;;;;;12.50;62.50;;;7.94;94.25;94611.50;4923073;29;19917;-49
2023/11/06 05:01:40;;;;;;;;;;;12.50;62.50;;;7.96;94.46;94602.22;4926051;28;20269;-50
2023/11/06 05:04:07;;;;;;;;;;;12.50;62.50;;;7.97;94.25;94605.66;4925436;29;19924;-51
2023/11/06 05:06:33;;;;;;;;;;;12.50;62.50;;;7.96;94.04;94612.00;4921782;29;20671;-49
2023/11/06 05:09:00;;;;;;;;;;;12.50;62.50;;;7.95;93.96;94605.91;4923854;28;19914;-49
2023/11/06 05:11:27;;;;;;;;;;;12.50;62.40;;;7.97;93.78;94611.75;4922074;29;20380;-50
2023/11/06 05:13:54;;;;;;;;;;;12.50;62.40;;;7.95;93.98;94610.44;4924866;29;19910;-48
2023/11/06 05:16:21;;;;;;;;;;;12.50;62.40;;;7.98;93.72;94620.50;4921207;29;19922;-50
2023/11/06 05:18:47;;;;;;;;;;;12.50;62.40;;;7.96;93.64;94610.16;4946390;28;19926;-48
2023/11/06 05:21:25;;;;;;;;;;;12.50;62.40;;;7.99;94.17;94625.53;4934069;29;20382;-50
2023/11/06 05:23:53;;;;;;;;;;;12.50;62.40;;;8.00;93.64;94618.38;4933797;29;19917;-52
2023/11/06 05:26:21;;;;;;;;;;;12.50;62.40;;;8.00;93.29;94618.38;4934499;29;19925;-52
2023/11/06 05:28:48;;;;;;;;;;;12.50;62.40;;;7.99;94.05;94625.53;4933562;29;19911;-52
2023/11/06 05:31:14;;;;;;;;;;;12.50;62.40;;;7.97;93.00;94622.34;4934461;29;19910;-51
2023/11/06 05:33:41;;;;;;;;;;;12.50;62.40;;;7.99;93.70;94624.72;4934401;29;19979;-50
2023/11/06 05:36:09;;;;;;;;;;;12.50;62.40;;;7.99;93.96;94627.38;4923002;29;19917;-50
2023/11/06 05:38:35;;;;;;;;;;;12.50;62.40;;;7.98;94.14;94623.94;4923468;29;19965;-47
2023/11/06 05:41:01;;;;;;;;;;;12.50;62.40;;;8.01;93.71;94623.41;4927564;29;19911;-48
2023/11/06 05:43:27;;;;;;;;;;;12.50;62.30;;;8.03;93.78;94629.22;4922118;29;19917;-49
2023/11/06 05:45:52;;;;;;;;;;;12.50;62.30;;;7.99;93.33;94622.91;4923325;29;20473;-49
2023/11/06 05:48:19;;;;;;;;;;;12.50;62.30;;;7.99;92.88;94632.69;4935950;29;20427;-51
2023/11/06 05:50:45;;;;;;;;;;;12.50;62.20;;;8.05;93.65;94634.25;4928511;28;19917;-49
2023/11/06 05:53:11;;;;;;;;;;;12.60;62.30;;;8.02;93.36;94627.66;4925429;29;20292;-50
2023/11/06 05:55:37;;;;;;;;;;;12.60;62.30;;;8.00;92.99;94629.78;4926563;29;19959;-47
2023/11/06 05:58:03;;;;;;;;;;;12.50;62.20;;;8.05;93.31;94637.72;4932300;29;19992;-47
2023/11/06 06:00:30;;;;;;;;;;;12.50;62.20;;;8.05;93.35;94642.22;4926807;28;20336;-50
2023/11/06 06:03:03;;;;;;;;;;;12.60;62.30;;;8.01;92.33;94633.22;4920511;29;19915;-52
2023/11/06 06:05:28;;;;;;;;;;;12.60;62.30;;;8.02;92.92;94635.59;4925027;29;20411;-51
2023/11/06 06:07:54;;;;;;;;;;;12.60;62.30;;;8.03;92.14;94639.84;4925182;29;19911;-49
2023/11/06 06:10:20;;;;;;;;;;;12.60;62.30;;;8.05;92.20;94643.03;4924958;29;19911;-50
2023/11/06 06:12:47;;;;;;;;;;;12.60;62.20;;;8.02;92.31;94646.22;4933172;29;19910;-48
2023/11/06 06:15:13;;;;;;;;;;;12.60;62.10;;;8.06;92.10;94652.56;4923704;28;19911;-50
2023/11/06 06:17:40;;;;;;;;;;;12.60;62.10;;;8.09;92.97;94653.88;4929552;29;20304;-49
2023/11/06 06:20:12;;;;;;;;;;;12.60;62.10;;;8.07;92.75;94656.78;4922925;29;19918;-53
2023/11/06 06:22:39;;;;;;;;;;;12.60;62.10;;;8.01;92.14;94657.88;4927172;29;19910;-47
2023/11/06 06:25:07;;;;;;;;;;;12.60;62.00;;;8.07;92.62;94659.44;4923197;29;20297;-53
2023/11/06 06:27:37;;;;;;;;;;;12.60;62.00;;;8.11;92.56;94659.69;4927555;29;19915;-48
2023/11/06 06:30:06;;;;;;;;;;;12.60;62.00;;;8.14;93.05;94663.66;4930327;29;19973;-51
2023/11/06 06:32:32;;;;;;;;;;;12.60;62.00;;;8.09;92.95;94659.97;4934276;29;19915;-54
2023/11/06 06:34:59;;;;;;;;;;;12.70;62.80;;;8.10;93.04;94672.16;4934294;29;19910;-50
2023/11/06 06:37:24;;;;;;;;;;;12.60;62.00;;;8.09;93.15;94670.59;4929637;29;19914;-53
2023/11/06 06:39:50;;;;;;;;;;;12.60;62.00;;;8.10;93.37;94668.72;4927865;28;19986;-56
2023/11/06 06:42:17;;;;;;;;;;;12.70;62.00;;;8.11;92.97;94671.09;4926717;28;19941;-56
2023/11/06 06:44:43;;;;;;;;;;;12.70;62.00;;;8.13;92.36;94675.34;4924419;29;19981;-53
2023/11/06 06:47:10;;;;;;;;;;;12.70;61.90;;;8.16;92.94;94675.59;4942291;28;19915;-55
2023/11/06 06:49:40;;;;;;;;;;;12.70;61.90;;;8.15;92.56;94681.97;4930724;28;19926;-56
2023/11/06 06:52:10;;;;;;;;;;;12.80;61.90;;;8.12;93.05;94677.22;4930971;29;20025;-54
2023/11/06 06:54:36;;;;;;;;;;;12.80;61.90;;;8.18;93.66;94675.31;4933986;29;19910;-56
2023/11/06 06:57:04;;;;;;;;;;;12.80;61.90;;;8.19;93.22;94684.88;4927248;29;19914;-55
2023/11/06 06:59:30;;;;;;;;;;;12.80;61.80;;;8.22;92.77;94685.13;4925911;28;19918;-55
2023/11/06 07:01:56;;;;;;;;;;;12.80;61.70;;;8.24;92.93;94690.16;4926861;29;19914;-55
2023/11/06 07:04:23;;;;;;;;;;;12.90;61.80;;;8.27;93.24;94692.25;4930323;29;20005;-56
2023/11/06 07:06:49;;;;;;;;;;;13.00;61.70;;;8.32;93.46;94692.25;4936374;29;19953;-54
2023/11/06 07:09:15;;;;;;;;;;;13.00;61.60;;;8.33;93.08;94686.66;4936122;29;20347;-56
2023/11/06 07:11:41;;;;;;;;;;;13.10;61.60;;;8.37;93.17;94692.25;4934935;29;19927;-53
2023/11/06 07:14:07;;;;;;;;;;;13.10;61.60;;;8.40;92.62;94696.22;4935631;29;19957;-55
2023/11/06 07:16:33;;;;;;;;;;;13.10;61.60;;;8.44;92.22;94691.97;4934072;29;19946;-53
2023/11/06 07:18:59;;;;;;;;;;;13.20;61.50;;;8.48;91.89;94696.47;4938298;28;19927;-52
2023/11/06 07:21:25;;;;;;;;;;;13.30;61.40;;;8.57;91.12;94691.38;4926214;29;19911;-54
2023/11/06 07:23:51;;;;;;;;;;;13.50;61.30;;;8.66;90.88;94689.75;4925007;28;20333;-50
2023/11/06 07:26:17;;;;;;;;;;;13.50;61.20;;;8.77;89.78;94704.56;4929630;29;19914;-54
2023/11/06 07:28:44;;;;;;;;;;;13.70;61.00;;;8.87;89.83;94709.03;4927288;29;19910;-52
2023/11/06 07:31:10;;;;;;;;;;;13.90;60.80;;;9.06;88.64;94708.34;4930375;29;19942;-57
2023/11/06 07:33:36;;;;;;;;;;;14.00;60.50;;;9.09;87.62;94710.47;4923831;29;19910;-53
2023/11/06 07:36:02;;;;;;;;;;;14.20;60.30;;;9.20;86.99;94717.31;4923905;28;19922;-55
2023/11/06 07:38:29;;;;;;;;;;;14.20;60.00;;;9.19;86.92;94719.16;4921251;29;20720;-55
2023/11/06 07:40:55;;;;;;;;;;;14.30;59.90;;;9.24;87.67;94723.66;4927516;28;20384;-51
2023/11/06 07:43:21;;;;;;;;;;;14.30;59.70;;;9.27;86.24;94720.44;4931742;29;19910;-54
2023/11/06 07:45:46;;;;;;;;;;;14.40;59.70;;;9.33;87.24;94731.81;4923228;29;19938;-54
2023/11/06 07:48:13;;;;;;;;;;;14.50;59.60;;;9.36;86.52;94731.28;4925535;28;20061;-57
2023/11/06 07:50:39;;;;;;;;;;;14.50;59.40;;;9.34;85.57;94736.88;4926714;29;20376;-51
2023/11/06 07:53:05;;;;;;;;;;;14.60;59.30;;;9.47;85.84;94725.63;4925643;29;19920;-54
2023/11/06 07:55:32;;;;;;;;;;;14.70;59.10;;;9.55;84.85;94726.09;4928900;29;20002;-56
2023/11/06 07:58:00;;;;;;;;;;;14.90;59.00;;;9.66;83.77;94735.56;4924662;28;20304;-55
2023/11/06 08:00:26;;;;;;;;;;;15.00;58.80;;;9.72;83.94;94743.22;4921616;29;19910;-54
2023/11/06 08:02:53;;;;;;;;;;;15.10;58.50;;;9.84;83.09;94728.75;4927174;29;19910;-55
2023/11/06 08:05:20;;;;;;;;;;;15.20;58.30;;;9.95;82.36;94728.38;4920441;29;19915;-50
2023/11/06 08:07:46;;;;;;;;;;;15.30;58.20;;;10.12;80.99;94735.13;4931356;29;19981;-54
2023/11/06 08:10:12;;;;;;;;;;;15.40;58.20;;;10.24;81.60;94727.56;4926532;29;20281;-53
2023/11/06 08:12:38;;;;;;;;;;;15.50;58.20;;;10.19;80.29;94736.41;4928052;29;19942;-57
2023/11/06 08:15:08;;;;;;;;;;;15.50;58.00;;;10.09;79.61;94749.00;4927620;29;20361;-54
2023/11/06 08:17:35;;;;;;;;;;;15.50;57.70;;;10.09;80.11;94754.31;4923976;29;20336;-57
2023/11/06 08:20:01;;;;;;;;;;;15.50;57.60;;;10.02;77.78;94751.19;4925102;29;19911;-49
2023/11/06 08:22:27;;;;;;;;;;;15.40;57.40;;;10.00;78.88;94745.34;4949013;28;19957;-48
2023/11/06 08:24:53;;;;;;;;;;;15.50;57.10;;;10.05;78.44;94756.75;4925533;29;19910;-45
2023/11/06 08:27:18;;;;;;;;;;;15.40;57.10;;;10.00;77.82;94748.03;4922394;29;19919;-45
2023/11/06 08:29:44;;;;;;;;;;;15.40;57.00;;;9.95;79.34;94754.97;4931561;29;20366;-45
2023/11/06 08:32:11;;;;;;;;;;;15.40;56.80;;;10.04;77.09;94749.84;4922116;29;19910;-45
2023/11/06 08:34:42;;;;;;;;;;;15.40;56.90;;;10.09;77.91;94752.47;4933099;29;19969;-47
2023/11/06 08:37:12;;;;;;;;;;;15.40;56.90;;;10.12;77.17;94748.44;4929542;29;19933;-45
2023/11/06 08:39:49;;;;;;;;;;;15.30;56.90;;;10.11;76.63;94752.19;4920751;29;20041;-49
2023/11/06 08:42:15;;;;;;;;;;;15.40;56.90;;;10.17;77.67;94751.84;4926078;29;19942;-45
2023/11/06 08:44:45;;;;;;;;;;;15.40;56.80;;;10.29;77.18;94750.72;4921717;29;20412;-44
2023/11/06 08:47:12;;;;;;;;;;;15.50;56.70;;;10.52;75.63;94752.56;4932145;29;19919;-46
2023/11/06 08:49:38;;;;;;;;;;;15.80;56.60;;;10.68;73.61;94745.19;4936329;28;20060;-45
2023/11/06 08:52:05;;;;;;;;;;;16.20;56.50;;;10.87;72.80;94750.53;4932926;29;19922;-46
2023/11/06 08:54:32;;;;;;;;;;;16.40;56.10;;;11.05;72.92;94759.66;4928304;29;19962;-49
2023/11/06 08:56:58;;;;;;;;;;;16.60;55.80;;;10.92;71.92;94763.03;4925539;29;19964;-45
2023/11/06 08:59:24;;;;;;;;;;;16.70;55.40;;;11.02;72.40;94760.22;4922799;29;19911;-49
2023/11/06 09:01:51;;;;;;;;;;;16.80;55.00;;;11.20;72.29;94756.00;4926154;29;19921;-46
2023/11/06 09:04:18;;;;;;;;;;;17.00;54.80;;;11.35;72.16;94759.22;4925696;29;19919;-51
2023/11/06 09:06:46;;;;;;;;;;;17.20;54.70;;;11.61;70.15;94758.84;4926194;29;19918;-45
2023/11/06 09:09:12;;;;;;;;;;;17.30;55.30;;;11.58;68.95;94770.88;4923812;29;19966;-45
2023/11/06 09:11:41;;;;;;;;;;;17.50;54.40;;;11.76;68.45;94763.16;4928897;29;19911;-50
2023/11/06 09:14:11;;;;;;;;;;;17.70;53.80;;;12.00;67.28;94763.84;4926412;29;20393;-50
2023/11/06 09:16:38;;;;;;;;;;;18.00;53.50;;;12.09;66.16;94766.63;4925932;29;19910;-49
2023/11/06 09:19:05;;;;;;;;;;;18.20;53.00;;;12.09;67.96;94755.94;4918982;29;19960;-45
2023/11/06 09:21:32;;;;;;;;;;;18.30;52.70;;;12.09;65.60;94763.97;4926645;29;19910;-46
2023/11/06 09:23:58;;;;;;;;;;;18.40;52.60;;;12.26;67.27;94763.41;4922687;29;20013;-45
2023/11/06 09:26:24;;;;;;;;;;;18.60;52.00;;;12.38;65.19;94765.59;4926761;29;19922;-46
2023/11/06 09:28:50;;;;;;;;;;;18.90;51.70;;;12.57;63.19;94757.50;4926125;29;19914;-47
2023/11/06 09:31:20;;;;;;;;;;;19.20;51.00;;;12.88;63.32;94768.34;4930784;29;20001;-48
2023/11/06 09:33:53;;;;;;;;;;;19.50;50.50;;;13.01;61.68;94762.22;4932405;29;19957;-47
2023/11/06 09:36:19;;;;;;;;;;;19.80;50.00;;;13.11;63.55;94766.56;4930801;29;20005;-45
2023/11/06 09:38:45;;;;;;;;;;;20.10;49.10;;;13.57;59.72;94770.91;4932060;29;19911;-47
2023/11/06 09:41:12;;;;;;;;;;;20.40;49.30;;;13.78;57.74;94774.72;4931492;29;19910;-47
2023/11/06 09:43:41;;;;;;;;;;;20.80;49.20;;;14.02;57.49;94778.97;4925070;29;19945;-50
2023/11/06 09:46:12;;;;;;;;;;;21.20;48.40;;;14.35;57.43;94782.97;4924818;29;19914;-47
2023/11/06 09:48:39;;;;;;;;;;;21.60;48.10;;;14.64;55.51;94781.69;4935801;29;20340;-48
2023/11/06 09:51:11;;;;;;;;;;;21.80;48.10;;;14.65;57.00;94780.59;4931134;29;19918;-48
2023/11/06 09:53:42;;;;;;;;;;;21.80;48.20;;;14.55;55.84;94786.22;4927340;29;19964;-47
2023/11/06 09:56:10;;;;;;;;;;;21.60;48.20;;;14.30;55.57;94793.00;4923459;29;19911;-46
2023/11/06 09:58:40;;;;;;;;;;;21.40;47.90;;;14.13;56.35;94785.66;4923450;28;20277;-46
2023/11/06 10:01:08;;;;;;;;;;;21.10;47.50;;;13.52;56.40;94782.53;4934859;29;19933;-46
2023/11/06 10:03:38;;;;;;;;;;;20.80;47.00;;;13.38;60.12;94789.81;4936712;29;19911;-46
2023/11/06 10:06:06;;;;;;;;;;;20.40;46.80;;;13.48;60.33;94789.59;4947601;28;19974;-48
2023/11/06 10:08:37;;;;;;;;;;;20.10;47.20;;;13.52;60.03;94795.91;4930173;29;20377;-47
2023/11/06 10:11:06;;;;;;;;;;;19.90;47.50;;;13.38;59.53;94789.81;4931474;29;19910;-50
2023/11/06 10:13:32;;;;;;;;;;;19.90;47.50;;;13.16;61.34;94794.00;4936780;29;19910;-47
2023/11/06 10:16:22;;;;;;;;;;;20.00;47.10;;;12.95;60.90;94782.91;4929850;29;19911;-53
2023/11/06 10:19:12;;;;;;;;;;;20.00;46.80;;;13.11;59.34;94779.94;4948015;28;20275;-48
2023/11/06 10:21:40;;;;;;;;;;;20.10;47.00;;;13.23;60.44;94785.56;4929914;28;19915;-48
2023/11/06 10:24:07;;;;;;;;;;;20.30;46.70;;;13.56;59.20;94777.38;4926142;29;19949;-46
2023/11/06 10:26:34;;;;;;;;;;;20.50;46.70;;;13.61;59.08;94787.97;4922829;29;20429;-46
2023/11/06 10:29:15;;;;;;;;;;;20.70;46.80;;;13.54;58.21;94782.25;4933258;29;20280;-52
2023/11/06 10:31:44;;;;;;;;;;;20.70;46.80;;;13.36;58.52;94779.41;4923456;29;19910;-47
2023/11/06 10:34:32;;;;;;;;;;;20.60;46.30;;;13.29;60.03;94784.38;4931445;29;20289;-46
2023/11/06 10:37:03;;;;;;;;;;;20.40;46.20;;;13.41;60.06;94776.63;4940601;28;19910;-46
2023/11/06 10:39:30;;;;;;;;;;;20.40;46.00;;;13.63;59.81;94780.41;4929215;29;19914;-46
2023/11/06 10:42:04;;;;;;;;;;;20.50;46.10;;;13.94;58.68;94779.69;4925438;28;19911;-46
2023/11/06 10:44:34;;;;;;;;;;;20.80;45.90;;;14.15;57.41;94780.00;4928859;29;19954;-50
2023/11/06 10:47:09;;;;;;;;;;;21.20;45.80;;;14.58;58.00;94778.38;4933269;29;20369;-48
2023/11/06 10:49:51;;;;;;;;;;;21.50;45.70;;;14.25;57.10;94772.50;4935414;28;20395;-46
2023/11/06 10:52:19;;;;;;;;;;;21.70;45.70;;;14.40;57.69;94775.88;4933180;29;19917;-48
2023/11/06 10:54:48;;;;;;;;;;;21.90;45.20;;;14.29;59.27;94778.84;4928642;29;20288;-47
2023/11/06 10:57:19;;;;;;;;;;;22.00;44.70;;;14.03;57.51;94770.63;4929429;29;20270;-45
2023/11/06 10:59:46;;;;;;;;;;;22.10;44.50;;;14.47;58.11;94784.25;4916005;29;19942;-46
2023/11/06 11:02:43;;;;;;;;;;;22.10;44.30;;;14.67;58.56;94781.09;4927818;29;19943;-48
2023/11/06 11:05:14;;;;;;;;;;;22.10;44.20;;;14.43;57.58;94775.28;4948709;28;19930;-51
2023/11/06 11:07:42;;;;;;;;;;;22.20;44.10;;;14.60;57.54;94782.63;4924525;29;19942;-46
2023/11/06 11:10:12;;;;;;;;;;;22.20;44.00;;;14.52;57.30;94784.97;4935373;28;20005;-45
2023/11/06 11:12:38;;;;;;;;;;;22.10;43.90;;;14.41;58.50;94788.97;4930657;29;20360;-51
2023/11/06 11:15:07;;;;;;;;;;;21.90;44.00;;;14.11;57.79;94780.59;4923013;29;19910;-52
2023/11/06 11:17:34;;;;;;;;;;;21.80;44.00;;;14.12;58.70;94776.03;4933583;29;19957;-52
2023/11/06 11:20:09;;;;;;;;;;;22.20;43.10;;;14.60;56.21;94782.63;4934613;29;20412;-57
2023/11/06 11:23:08;;;;;;;;;;;22.80;42.90;;;14.86;58.13;94775.47;4932674;28;20005;-47